Bookmark and Share
Track history (hours):
 

Ek-star

Last reported at 2014-Apr-15 20:06 UTC. Time now 2014-Apr-16 19:26 UTC.
Position N 59°53' E 030°11'.

Length 135 m; draft 6.2 m.

Type: Ship (hazmat cat A). MMSI: 257433000.

NotesDate/timePositionNaut miles runAvg speedWind from/ knotsBaromVisibWave heightAir tempDewpointWater temp
2014-Apr-15 20:06N 59°53' E 030°11'  
2014-Apr-12 19:21N 59°58' E 026°29'  
2014-Apr-10 05:33N 59°54' E 030°09'10212.8
2014-Apr-09 21:33N 59°59' E 026°45'5714.0
2014-Apr-09 17:31N 59°47' E 024°55'1413.7
2014-Apr-09 16:28N 59°44' E 024°27'1413.7
2014-Apr-09 15:25N 59°40' E 023°60'17411.7
2014-Apr-09 00:33N 59°22' E 018°19'5 0.2
2014-Apr-08 03:27N 59°19' E 018°10'6 6.9
2014-Apr-08 02:33N 59°23' E 018°21'21511.7
2014-Apr-07 08:15N 55°57' E 016°25'4315.0
2014-Apr-07 05:23N 55°36' E 015°19'1214.8
2014-Apr-07 04:33N 55°30' E 014°60'1514.8
2014-Apr-07 03:33N 55°23' E 014°37'1514.7
2014-Apr-07 02:33N 55°11' E 014°21'1514.6
2014-Apr-07 01:33N 55°00' E 014°05'1514.8
2014-Apr-07 00:33N 54°55' E 013°40'3414.8
2014-Apr-06 22:15N 54°45' E 012°44'1014.2
2014-Apr-06 21:32N 54°39' E 012°29'1313.5
2014-Apr-06 20:34N 54°29' E 012°15'1312.6
2014-Apr-06 19:34N 54°25' E 011°54'1414.2
2014-Apr-06 18:34N 54°29' E 011°31'1413.6
2014-Apr-06 17:33N 54°35' E 011°10'  

Dump ship's entire track history

sailing weather and tide predictions

Ek-star — LAMT5 — position and weather